sensor_id;sensor_type;location;lat;lon;timestamp;temperature;humidity
20512;DHT22;10414;52.074;5.126;2023-05-07T00:00:23;16.00;99.90
20512;DHT22;10414;52.074;5.126;2023-05-07T00:02:51;15.60;99.90
20512;DHT22;10414;52.074;5.126;2023-05-07T00:05:18;15.50;99.90
20512;DHT22;10414;52.074;5.126;2023-05-07T00:07:46;15.20;99.90
20512;DHT22;10414;52.074;5.126;2023-05-07T00:10:13;15.10;99.90
20512;DHT22;10414;52.074;5.126;2023-05-07T00:12:40;15.00;99.90
20512;DHT22;10414;52.074;5.126;2023-05-07T00:15:08;14.90;99.90
20512;DHT22;10414;52.074;5.126;2023-05-07T00:17:35;14.90;99.90
20512;DHT22;10414;52.074;5.126;2023-05-07T00:20:04;15.00;99.90
20512;DHT22;10414;52.074;5.126;2023-05-07T00:22:31;14.90;99.90
20512;DHT22;10414;52.074;5.126;2023-05-07T00:24:58;14.90;99.90
20512;DHT22;10414;52.074;5.126;2023-05-07T00:27:25;14.80;99.90
20512;DHT22;10414;52.074;5.126;2023-05-07T00:29:52;14.90;99.90
20512;DHT22;10414;52.074;5.126;2023-05-07T00:32:19;14.90;99.90
20512;DHT22;10414;52.074;5.126;2023-05-07T00:34:46;14.90;99.90
20512;DHT22;10414;52.074;5.126;2023-05-07T00:37:14;14.80;99.90
20512;DHT22;10414;52.074;5.126;2023-05-07T00:39:41;14.70;99.90
20512;DHT22;10414;52.074;5.126;2023-05-07T00:42:08;14.80;99.90
20512;DHT22;10414;52.074;5.126;2023-05-07T00:44:34;14.80;99.90
20512;DHT22;10414;52.074;5.126;2023-05-07T00:47:02;14.80;99.90
20512;DHT22;10414;52.074;5.126;2023-05-07T00:49:36;14.70;99.90
20512;DHT22;10414;52.074;5.126;2023-05-07T00:52:05;14.80;99.90
20512;DHT22;10414;52.074;5.126;2023-05-07T00:54:34;14.80;99.90
20512;DHT22;10414;52.074;5.126;2023-05-07T00:57:02;14.70;99.90
20512;DHT22;10414;52.074;5.126;2023-05-07T00:59:30;14.80;99.90
20512;DHT22;10414;52.074;5.126;2023-05-07T01:01:58;15.00;99.90
20512;DHT22;10414;52.074;5.126;2023-05-07T01:04:25;14.90;99.90
20512;DHT22;10414;52.074;5.126;2023-05-07T01:06:53;14.80;99.90
20512;DHT22;10414;52.074;5.126;2023-05-07T01:09:21;14.80;99.90
20512;DHT22;10414;52.074;5.126;2023-05-07T01:11:50;14.90;99.90
20512;DHT22;10414;52.074;5.126;2023-05-07T01:14:18;14.90;99.90
20512;DHT22;10414;52.074;5.126;2023-05-07T01:16:46;15.00;99.90
20512;DHT22;10414;52.074;5.126;2023-05-07T01:19:12;15.10;99.90
20512;DHT22;10414;52.074;5.126;2023-05-07T01:21:45;15.40;99.90
20512;DHT22;10414;52.074;5.126;2023-05-07T01:24:14;15.60;99.90
20512;DHT22;10414;52.074;5.126;2023-05-07T01:26:42;16.10;99.90
20512;DHT22;10414;52.074;5.126;2023-05-07T01:29:09;15.90;99.90
20512;DHT22;10414;52.074;5.126;2023-05-07T01:31:37;16.00;99.90
20512;DHT22;10414;52.074;5.126;2023-05-07T01:34:05;15.70;99.90
20512;DHT22;10414;52.074;5.126;2023-05-07T01:36:34;15.20;99.90
20512;DHT22;10414;52.074;5.126;2023-05-07T01:39:02;15.00;99.90
20512;DHT22;10414;52.074;5.126;2023-05-07T01:41:31;15.00;99.90
20512;DHT22;10414;52.074;5.126;2023-05-07T01:43:58;15.10;99.90
20512;DHT22;10414;52.074;5.126;2023-05-07T01:46:26;15.00;99.90
20512;DHT22;10414;52.074;5.126;2023-05-07T01:48:53;15.00;99.90
20512;DHT22;10414;52.074;5.126;2023-05-07T01:51:20;14.90;99.90
20512;DHT22;10414;52.074;5.126;2023-05-07T01:53:48;14.70;99.90
20512;DHT22;10414;52.074;5.126;2023-05-07T01:56:16;14.70;99.90
20512;DHT22;10414;52.074;5.126;2023-05-07T01:58:46;14.60;99.90
20512;DHT22;10414;52.074;5.126;2023-05-07T02:01:13;14.70;99.90
20512;DHT22;10414;52.074;5.126;2023-05-07T02:03:40;14.90;99.90
20512;DHT22;10414;52.074;5.126;2023-05-07T02:06:07;14.90;99.90
20512;DHT22;10414;52.074;5.126;2023-05-07T02:08:34;14.80;99.90
20512;DHT22;10414;52.074;5.126;2023-05-07T02:11:01;14.80;99.90
20512;DHT22;10414;52.074;5.126;2023-05-07T02:13:29;14.80;99.90
20512;DHT22;10414;52.074;5.126;2023-05-07T02:15:58;14.70;99.90
20512;DHT22;10414;52.074;5.126;2023-05-07T02:18:25;14.80;99.90
20512;DHT22;10414;52.074;5.126;2023-05-07T02:20:52;14.70;99.90
20512;DHT22;10414;52.074;5.126;2023-05-07T02:23:18;14.70;99.90
20512;DHT22;10414;52.074;5.126;2023-05-07T02:25:45;14.80;99.90
20512;DHT22;10414;52.074;5.126;2023-05-07T02:28:12;14.90;99.90
20512;DHT22;10414;52.074;5.126;2023-05-07T02:30:39;15.10;99.90
20512;DHT22;10414;52.074;5.126;2023-05-07T02:33:07;15.10;99.90
20512;DHT22;10414;52.074;5.126;2023-05-07T02:35:34;15.10;99.90
20512;DHT22;10414;52.074;5.126;2023-05-07T02:38:01;14.90;99.90
20512;DHT22;10414;52.074;5.126;2023-05-07T02:40:28;14.90;99.90
20512;DHT22;10414;52.074;5.126;2023-05-07T02:42:55;14.80;99.90
20512;DHT22;10414;52.074;5.126;2023-05-07T02:45:22;14.80;99.90
20512;DHT22;10414;52.074;5.126;2023-05-07T02:47:49;14.70;99.90
20512;DHT22;10414;52.074;5.126;2023-05-07T02:50:17;14.60;99.90
20512;DHT22;10414;52.074;5.126;2023-05-07T02:52:44;14.60;99.90
20512;DHT22;10414;52.074;5.126;2023-05-07T02:55:11;14.70;99.90
20512;DHT22;10414;52.074;5.126;2023-05-07T02:57:37;15.00;99.90
20512;DHT22;10414;52.074;5.126;2023-05-07T03:00:12;15.00;99.90
20512;DHT22;10414;52.074;5.126;2023-05-07T03:02:39;15.00;99.90
20512;DHT22;10414;52.074;5.126;2023-05-07T03:05:06;15.10;99.90
20512;DHT22;10414;52.074;5.126;2023-05-07T03:07:35;14.80;99.90
20512;DHT22;10414;52.074;5.126;2023-05-07T03:10:01;14.70;99.90
20512;DHT22;10414;52.074;5.126;2023-05-07T03:12:28;14.60;99.90
20512;DHT22;10414;52.074;5.126;2023-05-07T03:14:55;14.50;99.90
20512;DHT22;10414;52.074;5.126;2023-05-07T03:17:22;14.40;99.90
20512;DHT22;10414;52.074;5.126;2023-05-07T03:19:49;14.40;99.90
20512;DHT22;10414;52.074;5.126;2023-05-07T03:22:16;14.40;99.90
20512;DHT22;10414;52.074;5.126;2023-05-07T03:24:44;14.40;99.90
20512;DHT22;10414;52.074;5.126;2023-05-07T03:27:11;14.70;99.90
20512;DHT22;10414;52.074;5.126;2023-05-07T03:29:38;14.70;99.90
20512;DHT22;10414;52.074;5.126;2023-05-07T03:32:04;14.50;99.90
20512;DHT22;10414;52.074;5.126;2023-05-07T03:34:32;14.50;99.90
20512;DHT22;10414;52.074;5.126;2023-05-07T03:37:00;14.70;99.90
20512;DHT22;10414;52.074;5.126;2023-05-07T03:39:26;14.80;99.90
20512;DHT22;10414;52.074;5.126;2023-05-07T03:41:54;14.90;99.90
20512;DHT22;10414;52.074;5.126;2023-05-07T03:44:21;14.90;99.90
20512;DHT22;10414;52.074;5.126;2023-05-07T03:46:48;15.10;99.90
20512;DHT22;10414;52.074;5.126;2023-05-07T03:49:15;15.00;99.90
20512;DHT22;10414;52.074;5.126;2023-05-07T03:51:42;14.90;99.90
20512;DHT22;10414;52.074;5.126;2023-05-07T03:54:08;14.90;99.90
20512;DHT22;10414;52.074;5.126;2023-05-07T03:56:35;15.00;99.90
20512;DHT22;10414;52.074;5.126;2023-05-07T03:59:03;15.00;99.90
20512;DHT22;10414;52.074;5.126;2023-05-07T04:01:30;15.00;99.90
20512;DHT22;10414;52.074;5.126;2023-05-07T04:03:57;15.00;99.90
20512;DHT22;10414;52.074;5.126;2023-05-07T04:06:24;15.00;99.90
20512;DHT22;10414;52.074;5.126;2023-05-07T04:08:51;14.70;99.90
20512;DHT22;10414;52.074;5.126;2023-05-07T04:11:17;14.80;99.90
20512;DHT22;10414;52.074;5.126;2023-05-07T04:13:45;14.90;99.90
20512;DHT22;10414;52.074;5.126;2023-05-07T04:16:14;15.10;99.90
20512;DHT22;10414;52.074;5.126;2023-05-07T04:18:41;15.20;99.90
20512;DHT22;10414;52.074;5.126;2023-05-07T04:21:14;15.40;99.90
20512;DHT22;10414;52.074;5.126;2023-05-07T04:23:41;15.20;99.90
20512;DHT22;10414;52.074;5.126;2023-05-07T04:26:08;15.40;99.90
20512;DHT22;10414;52.074;5.126;2023-05-07T04:28:35;15.60;99.90
20512;DHT22;10414;52.074;5.126;2023-05-07T04:31:02;15.20;99.90
20512;DHT22;10414;52.074;5.126;2023-05-07T04:33:30;15.00;99.90
20512;DHT22;10414;52.074;5.126;2023-05-07T04:35:57;15.30;99.90
20512;DHT22;10414;52.074;5.126;2023-05-07T04:38:28;15.50;99.90
20512;DHT22;10414;52.074;5.126;2023-05-07T04:40:55;15.50;99.90
20512;DHT22;10414;52.074;5.126;2023-05-07T04:43:22;15.30;99.90
20512;DHT22;10414;52.074;5.126;2023-05-07T04:45:50;15.70;99.90
20512;DHT22;10414;52.074;5.126;2023-05-07T04:48:17;15.70;99.90
20512;DHT22;10414;52.074;5.126;2023-05-07T04:50:47;15.80;99.90
20512;DHT22;10414;52.074;5.126;2023-05-07T04:53:14;15.70;99.90
20512;DHT22;10414;52.074;5.126;2023-05-07T04:55:41;15.50;99.90
20512;DHT22;10414;52.074;5.126;2023-05-07T04:58:08;15.40;99.90
20512;DHT22;10414;52.074;5.126;2023-05-07T05:00:36;15.30;99.90
20512;DHT22;10414;52.074;5.126;2023-05-07T05:03:03;15.60;99.90
20512;DHT22;10414;52.074;5.126;2023-05-07T05:05:30;15.50;99.90
20512;DHT22;10414;52.074;5.126;2023-05-07T05:07:58;15.70;99.90
20512;DHT22;10414;52.074;5.126;2023-05-07T05:10:25;15.50;99.90
20512;DHT22;10414;52.074;5.126;2023-05-07T05:12:52;15.50;99.90
20512;DHT22;10414;52.074;5.126;2023-05-07T05:15:19;15.70;99.90
20512;DHT22;10414;52.074;5.126;2023-05-07T05:17:46;15.70;99.90
20512;DHT22;10414;52.074;5.126;2023-05-07T05:20:12;15.50;99.90
20512;DHT22;10414;52.074;5.126;2023-05-07T05:22:40;15.10;99.90
20512;DHT22;10414;52.074;5.126;2023-05-07T05:25:08;15.00;99.90
20512;DHT22;10414;52.074;5.126;2023-05-07T05:27:35;15.00;99.90
20512;DHT22;10414;52.074;5.126;2023-05-07T05:30:03;14.80;99.90
20512;DHT22;10414;52.074;5.126;2023-05-07T05:32:30;14.90;99.90
20512;DHT22;10414;52.074;5.126;2023-05-07T05:34:57;15.00;99.90
20512;DHT22;10414;52.074;5.126;2023-05-07T05:37:25;15.00;99.90
20512;DHT22;10414;52.074;5.126;2023-05-07T05:39:52;14.90;99.90
20512;DHT22;10414;52.074;5.126;2023-05-07T05:42:21;14.80;99.90
20512;DHT22;10414;52.074;5.126;2023-05-07T05:44:48;14.80;99.90
20512;DHT22;10414;52.074;5.126;2023-05-07T05:47:15;15.00;99.90
20512;DHT22;10414;52.074;5.126;2023-05-07T05:49:42;15.30;99.90
20512;DHT22;10414;52.074;5.126;2023-05-07T05:52:09;15.40;99.90
20512;DHT22;10414;52.074;5.126;2023-05-07T05:54:36;15.50;99.90
20512;DHT22;10414;52.074;5.126;2023-05-07T05:57:04;15.40;99.90
20512;DHT22;10414;52.074;5.126;2023-05-07T05:59:32;15.30;99.90
20512;DHT22;10414;52.074;5.126;2023-05-07T06:01:59;15.20;99.90
20512;DHT22;10414;52.074;5.126;2023-05-07T06:04:26;15.60;99.90
20512;DHT22;10414;52.074;5.126;2023-05-07T06:06:53;15.80;99.90
20512;DHT22;10414;52.074;5.126;2023-05-07T06:09:20;16.10;99.90
20512;DHT22;10414;52.074;5.126;2023-05-07T06:11:47;16.10;99.90
20512;DHT22;10414;52.074;5.126;2023-05-07T06:14:13;16.10;99.90
20512;DHT22;10414;52.074;5.126;2023-05-07T06:16:42;16.60;99.90
20512;DHT22;10414;52.074;5.126;2023-05-07T06:19:08;17.00;99.90
20512;DHT22;10414;52.074;5.126;2023-05-07T06:21:35;17.30;99.90
20512;DHT22;10414;52.074;5.126;2023-05-07T06:24:02;17.10;99.90
20512;DHT22;10414;52.074;5.126;2023-05-07T06:26:29;17.50;99.90
20512;DHT22;10414;52.074;5.126;2023-05-07T06:28:56;18.10;99.90
20512;DHT22;10414;52.074;5.126;2023-05-07T06:31:23;18.00;99.90
20512;DHT22;10414;52.074;5.126;2023-05-07T06:33:51;17.70;99.90
20512;DHT22;10414;52.074;5.126;2023-05-07T06:36:18;17.40;99.90
20512;DHT22;10414;52.074;5.126;2023-05-07T06:38:44;17.60;99.90
20512;DHT22;10414;52.074;5.126;2023-05-07T06:41:11;17.40;99.90
20512;DHT22;10414;52.074;5.126;2023-05-07T06:43:38;17.10;99.90
20512;DHT22;10414;52.074;5.126;2023-05-07T06:46:05;17.00;99.90
20512;DHT22;10414;52.074;5.126;2023-05-07T06:48:32;16.90;99.90
20512;DHT22;10414;52.074;5.126;2023-05-07T06:51:00;16.80;99.90
20512;DHT22;10414;52.074;5.126;2023-05-07T06:53:27;17.20;99.90
20512;DHT22;10414;52.074;5.126;2023-05-07T06:55:56;17.20;99.90
20512;DHT22;10414;52.074;5.126;2023-05-07T06:58:23;17.00;99.90
20512;DHT22;10414;52.074;5.126;2023-05-07T07:00:50;16.60;99.90
20512;DHT22;10414;52.074;5.126;2023-05-07T07:03:16;16.80;99.90
20512;DHT22;10414;52.074;5.126;2023-05-07T07:05:43;17.00;99.90
20512;DHT22;10414;52.074;5.126;2023-05-07T07:08:11;17.00;99.90
20512;DHT22;10414;52.074;5.126;2023-05-07T07:10:38;16.90;99.90
20512;DHT22;10414;52.074;5.126;2023-05-07T07:13:05;17.00;99.90
20512;DHT22;10414;52.074;5.126;2023-05-07T07:15:32;17.30;99.90
20512;DHT22;10414;52.074;5.126;2023-05-07T07:17:59;17.40;99.90
20512;DHT22;10414;52.074;5.126;2023-05-07T07:20:26;18.10;99.90
20512;DHT22;10414;52.074;5.126;2023-05-07T07:22:52;19.00;99.90
20512;DHT22;10414;52.074;5.126;2023-05-07T07:25:20;20.70;99.90
20512;DHT22;10414;52.074;5.126;2023-05-07T07:27:47;21.60;99.90
20512;DHT22;10414;52.074;5.126;2023-05-07T07:30:14;20.30;99.90
20512;DHT22;10414;52.074;5.126;2023-05-07T07:32:41;18.90;99.90
20512;DHT22;10414;52.074;5.126;2023-05-07T07:35:08;18.10;99.90
20512;DHT22;10414;52.074;5.126;2023-05-07T07:37:35;18.20;99.90
20512;DHT22;10414;52.074;5.126;2023-05-07T07:40:02;18.10;99.90
20512;DHT22;10414;52.074;5.126;2023-05-07T07:42:30;18.00;99.90
20512;DHT22;10414;52.074;5.126;2023-05-07T07:44:57;17.60;99.90
20512;DHT22;10414;52.074;5.126;2023-05-07T07:47:24;17.00;99.90
20512;DHT22;10414;52.074;5.126;2023-05-07T07:49:51;16.60;99.90
20512;DHT22;10414;52.074;5.126;2023-05-07T07:52:18;16.60;99.90
20512;DHT22;10414;52.074;5.126;2023-05-07T07:54:45;16.70;99.90
20512;DHT22;10414;52.074;5.126;2023-05-07T07:57:12;16.60;99.90
20512;DHT22;10414;52.074;5.126;2023-05-07T07:59:40;16.60;99.90
20512;DHT22;10414;52.074;5.126;2023-05-07T08:02:08;16.70;99.90
20512;DHT22;10414;52.074;5.126;2023-05-07T08:04:35;17.10;99.90
20512;DHT22;10414;52.074;5.126;2023-05-07T08:07:02;17.30;99.90
20512;DHT22;10414;52.074;5.126;2023-05-07T08:09:29;17.00;99.90
20512;DHT22;10414;52.074;5.126;2023-05-07T08:11:56;16.90;99.90
20512;DHT22;10414;52.074;5.126;2023-05-07T08:14:25;16.90;99.90
20512;DHT22;10414;52.074;5.126;2023-05-07T08:16:55;17.10;99.90
20512;DHT22;10414;52.074;5.126;2023-05-07T08:19:22;17.20;99.90
20512;DHT22;10414;52.074;5.126;2023-05-07T08:21:49;17.10;99.90
20512;DHT22;10414;52.074;5.126;2023-05-07T08:24:16;17.40;99.90
20512;DHT22;10414;52.074;5.126;2023-05-07T08:26:43;17.70;99.90
20512;DHT22;10414;52.074;5.126;2023-05-07T08:29:10;17.40;99.90
20512;DHT22;10414;52.074;5.126;2023-05-07T08:31:37;17.70;99.90
20512;DHT22;10414;52.074;5.126;2023-05-07T08:34:06;17.70;99.90
20512;DHT22;10414;52.074;5.126;2023-05-07T08:36:33;17.80;99.90
20512;DHT22;10414;52.074;5.126;2023-05-07T08:39:00;18.50;99.90
20512;DHT22;10414;52.074;5.126;2023-05-07T08:41:28;19.00;99.90
20512;DHT22;10414;52.074;5.126;2023-05-07T08:43:57;19.10;99.90
20512;DHT22;10414;52.074;5.126;2023-05-07T08:46:25;19.20;99.90
20512;DHT22;10414;52.074;5.126;2023-05-07T08:48:52;19.30;99.90
20512;DHT22;10414;52.074;5.126;2023-05-07T08:51:21;18.50;99.90
20512;DHT22;10414;52.074;5.126;2023-05-07T08:53:49;18.50;99.90
20512;DHT22;10414;52.074;5.126;2023-05-07T08:56:16;18.70;99.90
20512;DHT22;10414;52.074;5.126;2023-05-07T08:58:44;18.80;99.90
20512;DHT22;10414;52.074;5.126;2023-05-07T09:01:13;19.60;99.90
20512;DHT22;10414;52.074;5.126;2023-05-07T09:03:40;20.40;99.90
20512;DHT22;10414;52.074;5.126;2023-05-07T09:06:08;21.10;99.90
20512;DHT22;10414;52.074;5.126;2023-05-07T09:08:37;21.30;99.90
20512;DHT22;10414;52.074;5.126;2023-05-07T09:11:04;20.90;99.90
20512;DHT22;10414;52.074;5.126;2023-05-07T09:13:31;19.50;99.90
20512;DHT22;10414;52.074;5.126;2023-05-07T09:15:57;19.60;99.90
20512;DHT22;10414;52.074;5.126;2023-05-07T09:18:24;20.00;99.90
20512;DHT22;10414;52.074;5.126;2023-05-07T09:20:51;20.00;99.90
20512;DHT22;10414;52.074;5.126;2023-05-07T09:23:18;20.20;99.90
20512;DHT22;10414;52.074;5.126;2023-05-07T09:25:46;20.40;99.90
20512;DHT22;10414;52.074;5.126;2023-05-07T09:28:13;20.50;99.90
20512;DHT22;10414;52.074;5.126;2023-05-07T09:30:40;21.20;99.90
20512;DHT22;10414;52.074;5.126;2023-05-07T09:33:07;21.90;99.90
20512;DHT22;10414;52.074;5.126;2023-05-07T09:35:34;21.80;99.90
20512;DHT22;10414;52.074;5.126;2023-05-07T09:38:01;21.90;99.90
20512;DHT22;10414;52.074;5.126;2023-05-07T09:40:30;21.80;99.90
20512;DHT22;10414;52.074;5.126;2023-05-07T09:43:09;20.70;99.90
20512;DHT22;10414;52.074;5.126;2023-05-07T09:45:37;20.60;99.90
20512;DHT22;10414;52.074;5.126;2023-05-07T09:48:05;22.10;99.90
20512;DHT22;10414;52.074;5.126;2023-05-07T09:50:36;23.60;99.90
20512;DHT22;10414;52.074;5.126;2023-05-07T09:53:04;25.30;99.90
20512;DHT22;10414;52.074;5.126;2023-05-07T09:55:31;26.70;99.90
20512;DHT22;10414;52.074;5.126;2023-05-07T09:57:59;27.10;99.90
20512;DHT22;10414;52.074;5.126;2023-05-07T10:00:29;27.70;99.90
20512;DHT22;10414;52.074;5.126;2023-05-07T10:02:57;27.00;99.90
20512;DHT22;10414;52.074;5.126;2023-05-07T10:05:25;26.20;99.90
20512;DHT22;10414;52.074;5.126;2023-05-07T10:07:53;27.50;99.90
20512;DHT22;10414;52.074;5.126;2023-05-07T10:10:21;26.30;99.90
20512;DHT22;10414;52.074;5.126;2023-05-07T10:12:49;25.30;99.90
20512;DHT22;10414;52.074;5.126;2023-05-07T10:15:18;25.10;99.90
20512;DHT22;10414;52.074;5.126;2023-05-07T10:17:46;25.70;99.90
20512;DHT22;10414;52.074;5.126;2023-05-07T10:20:14;25.60;99.90
20512;DHT22;10414;52.074;5.126;2023-05-07T10:22:43;24.90;99.90
20512;DHT22;10414;52.074;5.126;2023-05-07T10:25:16;24.50;99.90
20512;DHT22;10414;52.074;5.126;2023-05-07T10:27:45;22.70;99.90
20512;DHT22;10414;52.074;5.126;2023-05-07T10:30:24;23.30;99.90
20512;DHT22;10414;52.074;5.126;2023-05-07T10:32:55;24.40;99.90
20512;DHT22;10414;52.074;5.126;2023-05-07T10:35:26;24.40;99.90
20512;DHT22;10414;52.074;5.126;2023-05-07T10:37:53;25.30;99.90
20512;DHT22;10414;52.074;5.126;2023-05-07T10:40:21;26.40;99.90
20512;DHT22;10414;52.074;5.126;2023-05-07T10:42:55;27.40;99.90
20512;DHT22;10414;52.074;5.126;2023-05-07T10:45:24;27.40;99.90
20512;DHT22;10414;52.074;5.126;2023-05-07T10:48:08;27.10;99.90
20512;DHT22;10414;52.074;5.126;2023-05-07T10:50:35;28.30;99.90
20512;DHT22;10414;52.074;5.126;2023-05-07T10:53:25;27.10;99.90
20512;DHT22;10414;52.074;5.126;2023-05-07T10:56:25;27.80;99.90
20512;DHT22;10414;52.074;5.126;2023-05-07T10:58:53;27.40;99.90
20512;DHT22;10414;52.074;5.126;2023-05-07T11:01:53;26.90;99.90
20512;DHT22;10414;52.074;5.126;2023-05-07T11:04:20;26.00;99.90
20512;DHT22;10414;52.074;5.126;2023-05-07T11:07:28;26.80;99.90
20512;DHT22;10414;52.074;5.126;2023-05-07T11:10:00;27.10;99.90
20512;DHT22;10414;52.074;5.126;2023-05-07T11:12:51;26.00;99.90
20512;DHT22;10414;52.074;5.126;2023-05-07T11:15:37;25.50;99.90
20512;DHT22;10414;52.074;5.126;2023-05-07T11:18:06;26.40;99.90
20512;DHT22;10414;52.074;5.126;2023-05-07T11:20:51;27.90;99.90
20512;DHT22;10414;52.074;5.126;2023-05-07T11:23:55;26.40;99.90
20512;DHT22;10414;52.074;5.126;2023-05-07T11:26:27;27.00;99.90
20512;DHT22;10414;52.074;5.126;2023-05-07T11:28:54;28.10;99.90
20512;DHT22;10414;52.074;5.126;2023-05-07T11:31:24;28.40;99.90
20512;DHT22;10414;52.074;5.126;2023-05-07T11:33:54;26.00;99.90
20512;DHT22;10414;52.074;5.126;2023-05-07T11:36:23;25.80;99.90
20512;DHT22;10414;52.074;5.126;2023-05-07T11:38:50;26.40;99.90
20512;DHT22;10414;52.074;5.126;2023-05-07T11:41:17;26.30;99.90
20512;DHT22;10414;52.074;5.126;2023-05-07T11:43:56;27.70;99.90
20512;DHT22;10414;52.074;5.126;2023-05-07T11:46:23;26.30;99.90
20512;DHT22;10414;52.074;5.126;2023-05-07T11:48:50;26.20;99.90
20512;DHT22;10414;52.074;5.126;2023-05-07T11:51:23;24.60;99.90
20512;DHT22;10414;52.074;5.126;2023-05-07T11:53:51;25.60;99.90
20512;DHT22;10414;52.074;5.126;2023-05-07T11:56:19;25.40;99.90
20512;DHT22;10414;52.074;5.126;2023-05-07T11:58:46;24.80;99.90
20512;DHT22;10414;52.074;5.126;2023-05-07T12:01:14;24.30;99.90
20512;DHT22;10414;52.074;5.126;2023-05-07T12:03:43;25.00;99.90
20512;DHT22;10414;52.074;5.126;2023-05-07T12:06:12;24.00;99.90
20512;DHT22;10414;52.074;5.126;2023-05-07T12:08:41;23.50;99.90
20512;DHT22;10414;52.074;5.126;2023-05-07T12:11:09;23.60;99.90
20512;DHT22;10414;52.074;5.126;2023-05-07T12:13:37;24.50;99.90
20512;DHT22;10414;52.074;5.126;2023-05-07T12:16:05;24.40;99.90
20512;DHT22;10414;52.074;5.126;2023-05-07T12:18:34;25.10;99.90
20512;DHT22;10414;52.074;5.126;2023-05-07T12:21:02;25.70;99.90
20512;DHT22;10414;52.074;5.126;2023-05-07T12:23:30;25.70;99.90
20512;DHT22;10414;52.074;5.126;2023-05-07T12:25:59;25.10;99.90
20512;DHT22;10414;52.074;5.126;2023-05-07T12:28:26;25.80;99.90
20512;DHT22;10414;52.074;5.126;2023-05-07T12:30:53;25.30;99.90
20512;DHT22;10414;52.074;5.126;2023-05-07T12:33:25;25.40;99.90
20512;DHT22;10414;52.074;5.126;2023-05-07T12:35:54;26.50;99.90
20512;DHT22;10414;52.074;5.126;2023-05-07T12:38:21;26.10;99.90
20512;DHT22;10414;52.074;5.126;2023-05-07T12:40:49;25.20;99.90
20512;DHT22;10414;52.074;5.126;2023-05-07T12:43:19;25.10;99.90
20512;DHT22;10414;52.074;5.126;2023-05-07T12:45:48;25.30;99.90
20512;DHT22;10414;52.074;5.126;2023-05-07T12:48:15;25.40;99.90
20512;DHT22;10414;52.074;5.126;2023-05-07T12:50:43;25.60;99.90
20512;DHT22;10414;52.074;5.126;2023-05-07T12:53:11;24.90;99.90
20512;DHT22;10414;52.074;5.126;2023-05-07T12:55:42;25.10;99.90
20512;DHT22;10414;52.074;5.126;2023-05-07T12:58:15;24.80;99.90
20512;DHT22;10414;52.074;5.126;2023-05-07T13:00:44;24.50;99.90
20512;DHT22;10414;52.074;5.126;2023-05-07T13:03:11;23.90;99.90
20512;DHT22;10414;52.074;5.126;2023-05-07T13:05:39;23.50;99.90
20512;DHT22;10414;52.074;5.126;2023-05-07T13:08:06;23.90;99.90
20512;DHT22;10414;52.074;5.126;2023-05-07T13:10:35;24.60;99.90
20512;DHT22;10414;52.074;5.126;2023-05-07T13:13:01;24.30;99.90
20512;DHT22;10414;52.074;5.126;2023-05-07T13:15:29;23.20;99.90
20512;DHT22;10414;52.074;5.126;2023-05-07T13:17:57;23.70;99.90
20512;DHT22;10414;52.074;5.126;2023-05-07T13:20:24;23.60;99.90
20512;DHT22;10414;52.074;5.126;2023-05-07T13:22:51;24.00;99.90
20512;DHT22;10414;52.074;5.126;2023-05-07T13:25:18;23.80;99.90
20512;DHT22;10414;52.074;5.126;2023-05-07T13:27:44;24.20;99.90
20512;DHT22;10414;52.074;5.126;2023-05-07T13:30:11;24.30;99.90
20512;DHT22;10414;52.074;5.126;2023-05-07T13:32:38;24.80;99.90
20512;DHT22;10414;52.074;5.126;2023-05-07T13:35:07;24.90;99.90
20512;DHT22;10414;52.074;5.126;2023-05-07T13:37:34;25.30;99.90
20512;DHT22;10414;52.074;5.126;2023-05-07T13:40:02;25.50;99.90
20512;DHT22;10414;52.074;5.126;2023-05-07T13:42:28;25.70;99.90
20512;DHT22;10414;52.074;5.126;2023-05-07T13:44:56;25.70;99.90
20512;DHT22;10414;52.074;5.126;2023-05-07T13:47:23;25.40;99.90
20512;DHT22;10414;52.074;5.126;2023-05-07T13:49:50;24.90;99.90
20512;DHT22;10414;52.074;5.126;2023-05-07T13:52:19;24.80;99.90
20512;DHT22;10414;52.074;5.126;2023-05-07T13:54:46;24.30;99.90
20512;DHT22;10414;52.074;5.126;2023-05-07T13:57:13;24.50;99.90
20512;DHT22;10414;52.074;5.126;2023-05-07T13:59:40;24.30;99.90
20512;DHT22;10414;52.074;5.126;2023-05-07T14:02:07;24.30;99.90
20512;DHT22;10414;52.074;5.126;2023-05-07T14:04:34;24.60;99.90
20512;DHT22;10414;52.074;5.126;2023-05-07T14:07:01;24.50;99.90
20512;DHT22;10414;52.074;5.126;2023-05-07T14:09:29;23.30;99.90
20512;DHT22;10414;52.074;5.126;2023-05-07T14:11:56;23.60;99.90
20512;DHT22;10414;52.074;5.126;2023-05-07T14:14:23;23.90;99.90
20512;DHT22;10414;52.074;5.126;2023-05-07T14:16:50;24.20;99.90
20512;DHT22;10414;52.074;5.126;2023-05-07T14:19:17;24.10;99.90
20512;DHT22;10414;52.074;5.126;2023-05-07T14:21:44;23.90;99.90
20512;DHT22;10414;52.074;5.126;2023-05-07T14:24:10;24.50;99.90
20512;DHT22;10414;52.074;5.126;2023-05-07T14:26:39;24.30;99.90
20512;DHT22;10414;52.074;5.126;2023-05-07T14:29:06;24.70;99.90
20512;DHT22;10414;52.074;5.126;2023-05-07T14:31:32;24.20;99.90
20512;DHT22;10414;52.074;5.126;2023-05-07T14:33:59;23.90;99.90
20512;DHT22;10414;52.074;5.126;2023-05-07T14:36:26;24.00;99.90
20512;DHT22;10414;52.074;5.126;2023-05-07T14:38:53;23.90;99.90
20512;DHT22;10414;52.074;5.126;2023-05-07T14:41:21;23.60;99.90
20512;DHT22;10414;52.074;5.126;2023-05-07T14:43:49;22.90;99.90
20512;DHT22;10414;52.074;5.126;2023-05-07T14:46:17;22.30;99.90
20512;DHT22;10414;52.074;5.126;2023-05-07T14:48:44;22.00;99.90
20512;DHT22;10414;52.074;5.126;2023-05-07T14:51:11;21.80;99.90
20512;DHT22;10414;52.074;5.126;2023-05-07T14:53:38;21.70;99.90
20512;DHT22;10414;52.074;5.126;2023-05-07T14:56:05;21.70;99.90
20512;DHT22;10414;52.074;5.126;2023-05-07T14:58:32;21.30;99.90
20512;DHT22;10414;52.074;5.126;2023-05-07T15:01:01;21.10;99.90
20512;DHT22;10414;52.074;5.126;2023-05-07T15:03:28;20.60;99.90
20512;DHT22;10414;52.074;5.126;2023-05-07T15:05:55;20.20;99.90
20512;DHT22;10414;52.074;5.126;2023-05-07T15:08:22;19.90;99.90
20512;DHT22;10414;52.074;5.126;2023-05-07T15:10:49;19.80;99.90
20512;DHT22;10414;52.074;5.126;2023-05-07T15:13:16;19.20;99.90
20512;DHT22;10414;52.074;5.126;2023-05-07T15:15:43;18.80;99.90
20512;DHT22;10414;52.074;5.126;2023-05-07T15:18:12;18.40;99.90
20512;DHT22;10414;52.074;5.126;2023-05-07T15:20:39;18.20;99.90
20512;DHT22;10414;52.074;5.126;2023-05-07T15:23:06;17.90;99.90
20512;DHT22;10414;52.074;5.126;2023-05-07T15:25:35;17.60;99.90
20512;DHT22;10414;52.074;5.126;2023-05-07T15:28:02;17.30;99.90
20512;DHT22;10414;52.074;5.126;2023-05-07T15:30:29;17.20;99.90
20512;DHT22;10414;52.074;5.126;2023-05-07T15:32:56;17.10;99.90
20512;DHT22;10414;52.074;5.126;2023-05-07T15:35:24;17.00;99.90